createdAt,value
2023-04-09T00:00:33.840Z,26.06
2023-04-09T00:01:33.843Z,26.08
2023-04-09T00:02:33.898Z,26.06
2023-04-09T00:03:34.086Z,26.05
2023-04-09T00:04:34.002Z,26.03
2023-04-09T00:05:34.013Z,26.06
2023-04-09T00:06:33.994Z,26.05
2023-04-09T00:07:34.062Z,26.03
2023-04-09T00:08:34.083Z,26.06
2023-04-09T00:09:34.122Z,26.07
2023-04-09T00:10:34.155Z,26.05
2023-04-09T00:11:34.162Z,26.05
2023-04-09T00:12:34.223Z,26.07
2023-04-09T00:13:39.077Z,26.06
2023-04-09T00:14:35.256Z,26.10
2023-04-09T00:15:34.245Z,26.06
2023-04-09T00:16:34.254Z,26.05
2023-04-09T00:17:34.237Z,26.09
2023-04-09T00:18:34.181Z,26.05
2023-04-09T00:19:34.179Z,26.02
2023-04-09T00:20:34.185Z,26.05
2023-04-09T00:21:34.180Z,26.03
2023-04-09T00:22:34.154Z,26.02
2023-04-09T00:23:34.188Z,26.07
2023-04-09T00:24:34.150Z,26.06
2023-04-09T00:25:34.186Z,26.07
2023-04-09T00:26:34.121Z,26.06
2023-04-09T00:27:34.181Z,26.09
2023-04-09T00:28:34.217Z,26.05
2023-04-09T00:29:34.236Z,26.06
2023-04-09T00:30:34.258Z,26.06
2023-04-09T00:31:34.350Z,26.03
2023-04-09T00:32:34.350Z,26.06
2023-04-09T00:33:34.393Z,26.06
2023-04-09T00:34:34.412Z,26.07
2023-04-09T00:35:34.483Z,26.08
2023-04-09T00:36:34.458Z,26.06
2023-04-09T00:37:34.485Z,26.07
2023-04-09T00:38:34.504Z,26.09
2023-04-09T00:39:34.564Z,26.03
2023-04-09T00:40:34.596Z,26.05
2023-04-09T00:41:34.624Z,26.03
2023-04-09T00:42:34.659Z,26.05
2023-04-09T00:43:34.716Z,26.06
2023-04-09T00:44:34.739Z,26.06
2023-04-09T00:45:34.797Z,26.05
2023-04-09T00:46:34.781Z,26.06
2023-04-09T00:47:34.865Z,26.09
2023-04-09T00:48:34.837Z,26.05
2023-04-09T00:49:34.909Z,26.03
2023-04-09T00:50:34.934Z,26.07
2023-04-09T00:51:34.956Z,26.10
2023-04-09T00:52:34.991Z,26.05
2023-04-09T00:53:35.052Z,26.06
2023-04-09T00:54:35.068Z,26.02
2023-04-09T00:55:35.103Z,26.06
2023-04-09T00:56:35.131Z,26.07
2023-04-09T00:57:35.164Z,26.05
2023-04-09T00:58:35.188Z,26.10
2023-04-09T00:59:35.243Z,26.09
2023-04-09T01:00:35.274Z,26.06
2023-04-09T01:01:35.351Z,26.07
2023-04-09T01:02:35.378Z,26.09
2023-04-09T01:03:35.401Z,26.07
2023-04-09T01:04:35.376Z,26.08
2023-04-09T01:05:35.417Z,26.09
2023-04-09T01:06:35.433Z,26.07
2023-04-09T01:07:35.490Z,26.10
2023-04-09T01:08:35.508Z,26.06
2023-04-09T01:09:35.573Z,26.12
2023-04-09T01:10:35.577Z,26.07
2023-04-09T01:11:35.599Z,26.05
2023-04-09T01:12:35.611Z,26.05
2023-04-09T01:13:35.675Z,26.09
2023-04-09T01:14:35.659Z,26.06
2023-04-09T01:15:35.741Z,26.03
2023-04-09T01:16:35.826Z,26.03
2023-04-09T01:17:35.773Z,26.07
2023-04-09T01:18:35.800Z,26.09
2023-04-09T01:19:35.870Z,26.07
2023-04-09T01:20:35.870Z,26.08
2023-04-09T01:21:35.948Z,26.07
2023-04-09T01:22:35.936Z,26.11
2023-04-09T01:23:35.962Z,26.07
2023-04-09T01:24:35.996Z,26.06
2023-04-09T01:25:36.079Z,26.07
2023-04-09T01:26:36.096Z,26.06
2023-04-09T01:27:36.136Z,26.10
2023-04-09T01:28:36.134Z,26.06
2023-04-09T01:29:36.192Z,26.06
2023-04-09T01:30:36.237Z,26.03
2023-04-09T01:31:36.242Z,26.07
2023-04-09T01:32:36.294Z,26.06
2023-04-09T01:33:36.308Z,26.10
2023-04-09T01:34:36.359Z,26.07
2023-04-09T01:35:36.404Z,26.08
2023-04-09T01:36:36.412Z,26.09
2023-04-09T01:37:36.477Z,26.06
2023-04-09T01:38:36.494Z,26.11
2023-04-09T01:39:36.555Z,26.11
2023-04-09T01:40:36.585Z,26.08
2023-04-09T01:41:36.617Z,26.13
2023-04-09T01:42:36.610Z,26.11
2023-04-09T01:43:36.689Z,26.11
2023-04-09T01:44:36.781Z,26.13
2023-04-09T01:45:36.748Z,26.11
2023-04-09T01:46:36.789Z,26.11
2023-04-09T01:47:36.810Z,26.07
2023-04-09T01:48:36.811Z,26.10
2023-04-09T01:49:36.890Z,26.13
2023-04-09T01:50:36.881Z,26.08
2023-04-09T01:51:36.925Z,26.10
2023-04-09T01:52:36.952Z,26.14
2023-04-09T01:53:37.006Z,26.11
2023-04-09T01:54:37.022Z,26.10
2023-04-09T01:55:37.062Z,26.10
2023-04-09T01:56:37.090Z,26.10
2023-04-09T01:57:37.148Z,26.14
2023-04-09T01:58:37.188Z,26.07
2023-04-09T01:59:37.208Z,26.07
2023-04-09T02:00:37.222Z,26.11
2023-04-09T02:01:37.339Z,26.13
2023-04-09T02:02:37.436Z,26.10
2023-04-09T02:03:37.434Z,26.21
2023-04-09T02:04:37.388Z,26.09
2023-04-09T02:05:37.427Z,26.07
2023-04-09T02:06:37.440Z,26.13
2023-04-09T02:07:37.475Z,26.11
2023-04-09T02:08:37.542Z,26.08
2023-04-09T02:09:37.566Z,26.11
2023-04-09T02:10:37.617Z,26.11
2023-04-09T02:11:37.621Z,26.10
2023-04-09T02:12:37.635Z,26.14
2023-04-09T02:13:37.689Z,26.11
2023-04-09T02:14:37.753Z,26.11
2023-04-09T02:15:37.810Z,26.08
2023-04-09T02:16:37.826Z,26.10
2023-04-09T02:17:37.853Z,26.13
2023-04-09T02:18:37.897Z,26.08
2023-04-09T02:19:37.934Z,26.14
2023-04-09T02:20:37.967Z,26.13
2023-04-09T02:21:37.983Z,26.08
2023-04-09T02:22:38.019Z,26.14
2023-04-09T02:23:38.061Z,26.13
2023-04-09T02:24:38.111Z,26.08
2023-04-09T02:25:38.141Z,26.10
2023-04-09T02:26:38.180Z,26.10
2023-04-09T02:27:38.207Z,26.16
2023-04-09T02:28:38.224Z,26.08
2023-04-09T02:29:38.288Z,26.08
2023-04-09T02:30:38.311Z,26.07
2023-04-09T02:31:38.332Z,26.07
2023-04-09T02:32:38.367Z,26.08
2023-04-09T02:33:38.404Z,26.08
2023-04-09T02:34:38.461Z,26.07
2023-04-09T02:35:38.523Z,26.08
2023-04-09T02:36:38.532Z,26.13
2023-04-09T02:37:38.549Z,26.07
2023-04-09T02:38:38.556Z,26.10
2023-04-09T02:39:38.636Z,26.11
2023-04-09T02:40:38.627Z,26.08
2023-04-09T02:41:38.688Z,26.11
2023-04-09T02:42:38.736Z,26.13
2023-04-09T02:43:38.726Z,26.10
2023-04-09T02:44:38.782Z,26.07
2023-04-09T02:45:38.809Z,26.11
2023-04-09T02:46:38.850Z,26.14
2023-04-09T02:47:38.880Z,26.13
2023-04-09T02:48:38.926Z,26.11
2023-04-09T02:49:38.956Z,26.03
2023-04-09T02:50:38.965Z,26.07
2023-04-09T02:51:38.991Z,26.08
2023-04-09T02:52:39.033Z,26.08
2023-04-09T02:53:39.075Z,26.11
2023-04-09T02:54:39.119Z,26.08
2023-04-09T02:55:39.146Z,26.11
2023-04-09T02:56:39.163Z,26.08
2023-04-09T02:57:39.195Z,26.10
2023-04-09T02:58:39.301Z,26.13
2023-04-09T02:59:39.279Z,26.08
2023-04-09T03:00:39.320Z,26.13
2023-04-09T03:01:39.419Z,26.13
2023-04-09T03:02:39.486Z,26.13
2023-04-09T03:03:39.548Z,26.13
2023-04-09T03:04:39.444Z,26.14
2023-04-09T03:05:39.506Z,26.13
2023-04-09T03:06:39.540Z,26.14
2023-04-09T03:07:39.601Z,26.10
2023-04-09T03:08:39.646Z,26.10
2023-04-09T03:09:39.630Z,26.15
2023-04-09T03:10:39.695Z,26.08
2023-04-09T03:11:39.705Z,26.14
2023-04-09T03:12:39.754Z,26.10
2023-04-09T03:13:39.799Z,26.14
2023-04-09T03:14:39.806Z,26.13
2023-04-09T03:15:39.882Z,26.14
2023-04-09T03:16:39.898Z,26.11
2023-04-09T03:17:39.972Z,26.14
2023-04-09T03:18:39.979Z,26.14
2023-04-09T03:19:40.004Z,26.13
2023-04-09T03:20:40.025Z,26.17
2023-04-09T03:21:40.034Z,26.14
2023-04-09T03:22:40.112Z,26.13
2023-04-09T03:23:40.135Z,26.13
2023-04-09T03:24:40.134Z,26.13
2023-04-09T03:25:40.185Z,26.15
2023-04-09T03:26:40.244Z,26.10
2023-04-09T03:27:40.289Z,26.17
2023-04-09T03:28:40.302Z,26.14
2023-04-09T03:29:40.316Z,26.15
2023-04-09T03:30:40.393Z,26.12
2023-04-09T03:31:40.485Z,26.14
2023-04-09T03:32:40.485Z,26.10
2023-04-09T03:33:40.481Z,26.14
2023-04-09T03:34:40.559Z,26.15
2023-04-09T03:35:40.607Z,26.15
2023-04-09T03:36:40.608Z,26.17
2023-04-09T03:37:40.647Z,26.17
2023-04-09T03:38:40.685Z,26.18
2023-04-09T03:39:40.704Z,26.17
2023-04-09T03:40:40.756Z,26.16
2023-04-09T03:41:40.779Z,26.15
2023-04-09T03:42:40.837Z,26.13
2023-04-09T03:43:40.851Z,26.13
2023-04-09T03:44:40.886Z,26.11
2023-04-09T03:45:40.943Z,26.15
2023-04-09T03:46:40.979Z,26.17
2023-04-09T03:47:41.030Z,26.10
2023-04-09T03:48:41.030Z,26.15
2023-04-09T03:49:41.071Z,26.11
2023-04-09T03:50:41.083Z,26.12
2023-04-09T03:51:41.111Z,26.16
2023-04-09T03:52:41.157Z,26.16
2023-04-09T03:53:41.180Z,26.17
2023-04-09T03:54:41.257Z,26.17
2023-04-09T03:55:41.272Z,26.08
2023-04-09T03:56:41.294Z,26.18
2023-04-09T03:57:41.349Z,26.17
2023-04-09T03:58:41.394Z,26.12
2023-04-09T03:59:41.400Z,26.18
2023-04-09T04:00:41.416Z,26.18
2023-04-09T04:01:41.552Z,26.14
2023-04-09T04:02:41.835Z,26.15
2023-04-09T04:03:41.719Z,26.17
2023-04-09T04:04:41.625Z,26.14
2023-04-09T04:05:41.610Z,26.17
2023-04-09T04:06:41.641Z,26.14
2023-04-09T04:07:41.681Z,26.14
2023-04-09T04:08:41.719Z,26.17
2023-04-09T04:09:41.767Z,26.19
2023-04-09T04:10:41.766Z,26.14
2023-04-09T04:11:41.839Z,26.15
2023-04-09T04:12:41.856Z,26.14
2023-04-09T04:13:41.914Z,26.11
2023-04-09T04:14:41.926Z,26.19
2023-04-09T04:15:41.990Z,26.21
2023-04-09T04:16:42.062Z,26.11
2023-04-09T04:17:42.108Z,26.18
2023-04-09T04:18:42.075Z,26.16
2023-04-09T04:19:42.108Z,26.15
2023-04-09T04:20:42.175Z,26.19
2023-04-09T04:21:42.176Z,26.18
2023-04-09T04:22:42.224Z,26.17
2023-04-09T04:23:42.276Z,26.21
2023-04-09T04:24:42.317Z,26.15
2023-04-09T04:25:42.322Z,26.18
2023-04-09T04:26:42.358Z,26.16
2023-04-09T04:27:42.444Z,26.19
2023-04-09T04:28:42.467Z,26.15
2023-04-09T04:29:42.566Z,26.12
2023-04-09T04:30:42.539Z,26.15
2023-04-09T04:31:42.640Z,26.15
2023-04-09T04:32:42.689Z,26.15
2023-04-09T04:33:42.672Z,26.16
2023-04-09T04:34:42.686Z,26.23
2023-04-09T04:35:42.757Z,26.14
2023-04-09T04:36:42.704Z,26.15
2023-04-09T04:37:42.760Z,26.12
2023-04-09T04:38:42.853Z,26.14
2023-04-09T04:39:42.818Z,26.15
2023-04-09T04:40:42.880Z,26.18
2023-04-09T04:41:42.923Z,26.17
2023-04-09T04:42:42.949Z,26.11
2023-04-09T04:43:42.966Z,26.16
2023-04-09T04:44:43.040Z,26.18
2023-04-09T04:45:43.121Z,26.14
2023-04-09T04:46:43.120Z,26.15
2023-04-09T04:47:43.221Z,26.15
2023-04-09T04:48:43.182Z,26.14
2023-04-09T04:49:43.234Z,26.16
2023-04-09T04:50:43.227Z,26.15
2023-04-09T04:51:43.293Z,26.14
2023-04-09T04:52:43.288Z,26.15
2023-04-09T04:53:43.339Z,26.14
2023-04-09T04:54:43.391Z,26.19
2023-04-09T04:55:43.390Z,26.15
2023-04-09T04:56:43.410Z,26.15
2023-04-09T04:57:43.438Z,26.15
2023-04-09T04:58:43.512Z,26.19
2023-04-09T04:59:43.533Z,26.11
2023-04-09T05:00:43.553Z,26.11
2023-04-09T05:01:43.620Z,26.14
2023-04-09T05:02:43.680Z,26.12
2023-04-09T05:03:43.758Z,26.11
2023-04-09T05:04:43.695Z,26.12
2023-04-09T05:05:43.714Z,26.18
2023-04-09T05:06:43.742Z,26.18
2023-04-09T05:07:43.770Z,26.14
2023-04-09T05:08:43.834Z,26.15
2023-04-09T05:09:43.848Z,26.12
2023-04-09T05:10:43.898Z,26.15
2023-04-09T05:11:43.909Z,26.15
2023-04-09T05:12:43.960Z,26.17
2023-04-09T05:13:43.990Z,26.10
2023-04-09T05:14:44.039Z,26.14
2023-04-09T05:15:44.077Z,26.14
2023-04-09T05:16:44.126Z,26.17
2023-04-09T05:17:44.221Z,26.15
2023-04-09T05:18:44.185Z,26.16
2023-04-09T05:19:44.228Z,26.14
2023-04-09T05:20:44.273Z,26.16
2023-04-09T05:21:46.800Z,26.12
2023-04-09T05:22:44.286Z,26.15
2023-04-09T05:23:44.313Z,26.15
2023-04-09T05:24:44.301Z,26.14
2023-04-09T05:25:44.274Z,26.15
2023-04-09T05:26:44.282Z,26.15
2023-04-09T05:27:44.262Z,26.18
2023-04-09T05:28:44.266Z,26.15
2023-04-09T05:29:44.234Z,26.12
2023-04-09T05:30:44.295Z,26.18
2023-04-09T05:31:44.282Z,26.18
2023-04-09T05:32:44.243Z,26.15
2023-04-09T05:33:44.217Z,26.14
2023-04-09T05:34:44.218Z,26.11
2023-04-09T05:35:44.205Z,26.17
2023-04-09T05:36:44.170Z,26.15
2023-04-09T05:37:44.193Z,26.14
2023-04-09T05:38:44.199Z,26.15
2023-04-09T05:39:44.175Z,26.15
2023-04-09T05:40:44.174Z,26.13
2023-04-09T05:41:44.159Z,26.10
2023-04-09T05:42:44.151Z,26.13
2023-04-09T05:43:44.159Z,26.10
2023-04-09T05:44:44.139Z,26.10
2023-04-09T05:45:44.172Z,26.10
2023-04-09T05:46:44.105Z,26.10
2023-04-09T05:47:44.134Z,26.14
2023-04-09T05:48:44.138Z,26.17
2023-04-09T05:49:44.137Z,26.10
2023-04-09T05:50:54.659Z,26.11
2023-04-09T05:51:45.111Z,26.13
2023-04-09T05:52:44.091Z,26.13
2023-04-09T05:53:44.095Z,26.11
2023-04-09T05:54:44.104Z,26.14
2023-04-09T05:55:44.070Z,26.17
2023-04-09T05:56:44.079Z,26.10
2023-04-09T05:57:44.038Z,26.10
2023-04-09T05:58:44.136Z,26.10
2023-04-09T05:59:44.039Z,26.07
2023-04-09T06:00:44.042Z,26.08
2023-04-09T06:01:44.079Z,26.11
2023-04-09T06:02:44.083Z,26.14
2023-04-09T06:03:44.133Z,26.15
2023-04-09T06:04:44.068Z,26.14
2023-04-09T06:05:44.023Z,26.14
2023-04-09T06:06:44.043Z,26.13
2023-04-09T06:07:44.081Z,26.14
2023-04-09T06:08:44.113Z,26.13
2023-04-09T06:09:44.214Z,26.11
2023-04-09T06:10:44.206Z,26.14
2023-04-09T06:11:44.233Z,26.08
2023-04-09T06:12:44.244Z,26.13
2023-04-09T06:13:44.284Z,26.07
2023-04-09T06:14:44.349Z,26.11
2023-04-09T06:15:44.385Z,26.16
2023-04-09T06:16:44.413Z,26.13
2023-04-09T06:17:44.479Z,26.06
2023-04-09T06:18:44.492Z,26.13
2023-04-09T06:19:44.490Z,26.11
2023-04-09T06:20:44.570Z,26.11
2023-04-09T06:21:44.616Z,26.10
2023-04-09T06:22:44.586Z,26.15
2023-04-09T06:23:44.638Z,26.14
2023-04-09T06:24:44.687Z,26.10
2023-04-09T06:25:44.715Z,26.11
2023-04-09T06:26:44.744Z,26.08
2023-04-09T06:27:44.818Z,26.08
2023-04-09T06:28:44.843Z,26.17
2023-04-09T06:29:44.891Z,26.13
2023-04-09T06:30:44.919Z,26.10
2023-04-09T06:31:44.939Z,26.13
2023-04-09T06:32:54.303Z,26.11
2023-04-09T06:33:45.978Z,26.11
2023-04-09T06:34:44.960Z,26.08
2023-04-09T06:35:45.012Z,26.08
2023-04-09T06:36:44.956Z,26.11
2023-04-09T06:37:44.931Z,26.10
2023-04-09T06:38:44.901Z,26.16
2023-04-09T06:39:58.246Z,26.07
2023-04-09T06:40:45.924Z,26.07
2023-04-09T06:41:44.894Z,26.13
2023-04-09T06:42:44.908Z,26.06
2023-04-09T06:43:44.880Z,26.04
2023-04-09T06:44:44.913Z,26.07
2023-04-09T06:45:44.858Z,26.07
2023-04-09T06:46:44.930Z,26.07
2023-04-09T06:47:44.917Z,26.10
2023-04-09T06:48:44.864Z,26.06
2023-04-09T06:49:44.849Z,26.05
2023-04-09T06:50:44.850Z,26.05
2023-04-09T06:51:44.835Z,26.07
2023-04-09T06:52:44.833Z,26.07
2023-04-09T06:53:44.963Z,26.05
2023-04-09T06:54:45.240Z,26.05
2023-04-09T06:55:44.923Z,26.08
2023-04-09T06:56:44.948Z,26.09
2023-04-09T06:57:44.980Z,25.99
2023-04-09T06:58:45.019Z,26.06
2023-04-09T06:59:45.059Z,26.01
2023-04-09T07:00:45.112Z,26.05
2023-04-09T07:01:45.164Z,26.03
2023-04-09T07:02:45.323Z,25.99
2023-04-09T07:03:45.226Z,26.02
2023-04-09T07:04:45.225Z,26.01
2023-04-09T07:05:45.209Z,26.03
2023-04-09T07:06:45.323Z,26.03
2023-04-09T07:07:45.298Z,26.03
2023-04-09T07:08:45.416Z,26.02
2023-04-09T07:09:45.327Z,26.03
2023-04-09T07:10:45.371Z,26.03
2023-04-09T07:11:45.369Z,25.99
2023-04-09T07:12:45.419Z,25.98
2023-04-09T07:13:45.420Z,26.02
2023-04-09T07:14:45.465Z,26.01
2023-04-09T07:15:45.547Z,25.98
2023-04-09T07:16:45.499Z,25.99
2023-04-09T07:17:45.586Z,25.99
2023-04-09T07:18:45.568Z,25.98
2023-04-09T07:19:45.587Z,25.99
2023-04-09T07:20:45.654Z,26.02
2023-04-09T07:21:45.657Z,25.98
2023-04-09T07:22:45.688Z,25.96
2023-04-09T07:23:45.682Z,25.98
2023-04-09T07:24:45.720Z,26.02
2023-04-09T07:25:45.762Z,26.01
2023-04-09T07:26:45.777Z,25.99
2023-04-09T07:27:45.824Z,25.99
2023-04-09T07:28:45.825Z,26.01
2023-04-09T07:29:45.874Z,25.99
2023-04-09T07:30:45.892Z,26.01
2023-04-09T07:31:45.922Z,25.99
2023-04-09T07:32:46.008Z,26.03
2023-04-09T07:33:46.000Z,26.01
2023-04-09T07:34:46.024Z,25.98
2023-04-09T07:35:46.072Z,26.01
2023-04-09T07:36:46.071Z,26.03
2023-04-09T07:37:46.157Z,26.01
2023-04-09T07:38:46.151Z,26.01
2023-04-09T07:39:46.184Z,25.99
2023-04-09T07:40:46.221Z,25.95
2023-04-09T07:41:46.343Z,25.96
2023-04-09T07:42:46.275Z,25.96
2023-04-09T07:43:46.271Z,25.98
2023-04-09T07:44:46.308Z,25.99
2023-04-09T07:45:46.379Z,25.99
2023-04-09T07:46:46.408Z,25.96
2023-04-09T07:47:46.447Z,25.96
2023-04-09T07:48:48.340Z,25.95
2023-04-09T07:49:46.451Z,25.99
2023-04-09T07:50:46.507Z,25.95
2023-04-09T07:51:46.537Z,25.95
2023-04-09T07:52:46.544Z,25.96
2023-04-09T07:53:46.600Z,25.95
2023-04-09T07:54:46.605Z,26.01
2023-04-09T07:55:46.642Z,25.94
2023-04-09T07:56:46.671Z,25.94
2023-04-09T07:57:46.688Z,25.98
2023-04-09T07:58:46.748Z,25.94
2023-04-09T07:59:46.766Z,25.96
2023-04-09T08:00:46.785Z,25.96
2023-04-09T08:01:46.910Z,25.98
2023-04-09T08:02:47.018Z,25.94
2023-04-09T08:03:46.932Z,25.96
2023-04-09T08:04:47.079Z,25.94
2023-04-09T08:05:46.918Z,25.91
2023-04-09T08:06:46.935Z,25.93
2023-04-09T08:07:46.978Z,25.90
2023-04-09T08:08:47.007Z,25.91
2023-04-09T08:09:47.002Z,25.93
2023-04-09T08:10:47.038Z,25.93
2023-04-09T08:11:47.037Z,25.93
2023-04-09T08:12:47.055Z,25.90
2023-04-09T08:13:47.097Z,25.90
2023-04-09T08:14:47.122Z,25.89
2023-04-09T08:15:47.138Z,25.86
2023-04-09T08:16:47.320Z,25.90
2023-04-09T08:17:47.195Z,25.88
2023-04-09T08:18:47.149Z,25.92
2023-04-09T08:19:47.203Z,25.88
2023-04-09T08:20:47.246Z,25.89
2023-04-09T08:21:47.218Z,25.86
2023-04-09T08:22:47.271Z,25.87
2023-04-09T08:23:47.280Z,25.83
2023-04-09T08:24:47.316Z,25.85
2023-04-09T08:25:47.287Z,25.86
2023-04-09T08:26:47.315Z,25.86
2023-04-09T08:27:47.321Z,25.81
2023-04-09T08:28:47.373Z,25.76
2023-04-09T08:29:47.412Z,25.75
2023-04-09T08:30:47.373Z,25.77
2023-04-09T08:31:47.463Z,25.74
2023-04-09T08:32:47.459Z,25.67
2023-04-09T08:33:47.451Z,25.71
2023-04-09T08:34:47.435Z,25.66
2023-04-09T08:35:47.467Z,25.65
2023-04-09T08:36:47.503Z,25.67
2023-04-09T08:37:47.446Z,25.65
2023-04-09T08:38:47.485Z,25.69
2023-04-09T08:39:47.502Z,25.69
2023-04-09T08:40:47.487Z,25.62
2023-04-09T08:41:47.479Z,25.66
2023-04-09T08:42:47.532Z,25.63
2023-04-09T08:44:48.511Z,25.64
2023-04-09T08:45:47.572Z,25.69
2023-04-09T08:46:47.474Z,25.65
2023-04-09T08:47:47.524Z,25.62
2023-04-09T08:48:47.471Z,25.61
2023-04-09T08:49:47.462Z,25.61
2023-04-09T08:50:47.461Z,25.55
2023-04-09T08:51:47.465Z,25.58
2023-04-09T08:52:47.415Z,25.58
2023-04-09T08:53:47.439Z,25.58
2023-04-09T08:54:47.510Z,25.61
2023-04-09T08:55:47.412Z,25.60
2023-04-09T08:56:47.398Z,25.58
2023-04-09T08:57:47.403Z,25.55
2023-04-09T08:58:47.382Z,25.54
2023-04-09T08:59:47.402Z,25.53
2023-04-09T09:00:47.406Z,25.52
2023-04-09T09:01:47.425Z,25.49
2023-04-09T09:02:47.444Z,25.50
2023-04-09T09:03:47.513Z,25.49
2023-04-09T09:04:47.364Z,25.39
2023-04-09T09:05:47.344Z,25.47
2023-04-09T09:06:47.366Z,25.41
2023-04-09T09:07:47.346Z,25.43
2023-04-09T09:08:47.340Z,25.43
2023-04-09T09:10:14.670Z,25.41
2023-04-09T09:11:14.647Z,25.36
2023-04-09T09:12:14.659Z,25.36
2023-04-09T09:13:14.653Z,25.32
2023-04-09T09:14:14.639Z,25.38
2023-04-09T09:15:14.647Z,25.34
2023-04-09T09:16:14.666Z,25.37
2023-04-09T09:17:14.656Z,25.40
2023-04-09T09:18:14.594Z,25.34
2023-04-09T09:19:14.611Z,25.31
2023-04-09T09:20:14.597Z,25.34
2023-04-09T09:21:14.585Z,25.33
2023-04-09T09:22:14.570Z,25.33
2023-04-09T09:23:14.562Z,25.33
2023-04-09T09:24:14.552Z,25.36
2023-04-09T09:25:14.564Z,25.33
2023-04-09T09:26:14.539Z,25.34
2023-04-09T09:27:14.557Z,25.33
2023-04-09T09:28:14.538Z,25.27
2023-04-09T09:29:14.546Z,25.28
2023-04-09T09:30:14.568Z,25.27
2023-04-09T09:31:14.544Z,25.27
2023-04-09T09:32:14.524Z,25.31
2023-04-09T09:33:14.524Z,25.23
2023-04-09T09:34:14.481Z,25.22
2023-04-09T09:35:14.479Z,25.30
2023-04-09T09:36:14.532Z,25.31
2023-04-09T09:37:14.498Z,25.26
2023-04-09T09:38:14.473Z,25.29
2023-04-09T09:39:14.498Z,25.31
2023-04-09T09:40:14.450Z,25.32
2023-04-09T09:41:14.449Z,25.30
2023-04-09T09:42:14.436Z,25.35
2023-04-09T09:43:14.730Z,25.27
2023-04-09T09:44:14.422Z,25.31
2023-04-09T09:45:14.420Z,25.33
2023-04-09T09:46:14.448Z,25.31
2023-04-09T09:47:14.414Z,25.31
2023-04-09T09:48:14.424Z,25.27
2023-04-09T09:49:14.399Z,25.31
2023-04-09T09:50:14.367Z,25.30
2023-04-09T09:51:14.466Z,25.27
2023-04-09T09:52:14.394Z,25.29
2023-04-09T09:53:14.342Z,25.30
2023-04-09T09:54:14.323Z,25.30
2023-04-09T09:55:14.365Z,25.29
2023-04-09T09:56:14.344Z,25.29
2023-04-09T09:57:14.350Z,25.29
2023-04-09T09:58:14.312Z,25.27
2023-04-09T09:59:14.335Z,25.29
2023-04-09T10:00:14.320Z,25.26
2023-04-09T10:01:14.345Z,25.26
2023-04-09T10:02:14.435Z,25.27
2023-04-09T10:03:14.324Z,25.25
2023-04-09T10:04:14.321Z,25.23
2023-04-09T10:05:14.311Z,25.26
2023-04-09T10:06:14.284Z,25.24
2023-04-09T10:07:14.276Z,25.22
2023-04-09T10:08:14.250Z,25.22
2023-04-09T10:09:14.236Z,25.22
2023-04-09T10:10:14.257Z,25.19
2023-04-09T10:11:14.245Z,25.19
2023-04-09T10:12:14.235Z,25.24
2023-04-09T10:13:14.245Z,25.22
2023-04-09T10:14:14.238Z,25.20
2023-04-09T10:15:14.213Z,25.20
2023-04-09T10:16:14.237Z,25.27
2023-04-09T10:17:14.199Z,25.25
2023-04-09T10:18:14.190Z,25.21
2023-04-09T10:19:14.321Z,25.21
2023-04-09T10:20:14.176Z,25.25
2023-04-09T10:21:14.161Z,25.24
2023-04-09T10:22:14.185Z,25.24
2023-04-09T10:23:14.143Z,25.29
2023-04-09T10:24:14.140Z,25.29
2023-04-09T10:25:14.154Z,25.32
2023-04-09T10:26:14.139Z,25.28
2023-04-09T10:27:16.214Z,25.25
2023-04-09T10:28:14.136Z,25.26
2023-04-09T10:29:14.159Z,25.24
2023-04-09T10:30:14.304Z,25.24
2023-04-09T10:31:14.165Z,25.22
2023-04-09T10:32:14.125Z,25.25
2023-04-09T10:33:14.157Z,25.22
2023-04-09T10:34:14.135Z,25.18
2023-04-09T10:35:14.268Z,25.24
2023-04-09T10:36:14.201Z,25.18
2023-04-09T10:37:14.153Z,25.22
2023-04-09T10:38:14.142Z,25.21
2023-04-09T10:39:14.165Z,25.20
2023-04-09T10:40:14.201Z,25.17
2023-04-09T10:41:14.217Z,25.16
2023-04-09T10:42:14.256Z,25.20
2023-04-09T10:43:14.285Z,25.13
2023-04-09T10:44:14.290Z,25.17
2023-04-09T10:45:14.632Z,25.18
2023-04-09T10:46:14.416Z,25.25
2023-04-09T10:47:14.412Z,25.14
2023-04-09T10:48:14.470Z,25.15
2023-04-09T10:49:14.505Z,25.07
2023-04-09T10:50:14.603Z,25.08
2023-04-09T10:51:14.633Z,25.11
2023-04-09T10:52:14.674Z,25.11
2023-04-09T10:53:14.730Z,25.11
2023-04-09T10:54:14.805Z,25.10
2023-04-09T10:55:14.848Z,25.17
2023-04-09T10:56:14.917Z,25.07
2023-04-09T10:57:14.969Z,25.11
2023-04-09T10:58:15.034Z,25.06
2023-04-09T10:59:15.094Z,25.00
2023-04-09T11:00:15.179Z,24.96
2023-04-09T11:01:15.230Z,24.96
2023-04-09T11:02:15.337Z,24.98
2023-04-09T11:03:15.378Z,24.93
2023-04-09T11:04:15.398Z,24.97
2023-04-09T11:05:15.457Z,24.98
2023-04-09T11:06:15.504Z,24.93
2023-04-09T11:07:15.566Z,24.90
2023-04-09T11:08:15.594Z,24.87
2023-04-09T11:09:15.686Z,24.86
2023-04-09T11:10:15.711Z,24.86
2023-04-09T11:11:15.749Z,24.83
2023-04-09T11:12:15.824Z,24.83
2023-04-09T11:13:15.875Z,24.79
2023-04-09T11:14:15.934Z,24.71
2023-04-09T11:15:16.006Z,24.71
2023-04-09T11:16:22.946Z,24.73
2023-04-09T11:17:17.082Z,24.70
2023-04-09T11:18:16.006Z,24.76
2023-04-09T11:19:15.998Z,24.67
2023-04-09T11:20:16.007Z,24.66
2023-04-09T11:21:15.989Z,24.67
2023-04-09T11:22:15.964Z,24.60
2023-04-09T11:23:15.969Z,24.62
2023-04-09T11:24:15.979Z,24.62
2023-04-09T11:25:15.945Z,24.60
2023-04-09T11:26:15.946Z,24.59
2023-04-09T11:27:15.939Z,24.61
2023-04-09T11:28:15.968Z,24.62
2023-04-09T11:29:16.020Z,24.61
2023-04-09T11:30:16.078Z,24.57
2023-04-09T11:31:16.115Z,24.57
2023-04-09T11:32:16.139Z,24.61
2023-04-09T11:33:19.132Z,24.59
2023-04-09T11:34:16.179Z,24.55
2023-04-09T11:35:16.191Z,24.51
2023-04-09T11:36:16.193Z,24.51
2023-04-09T11:37:16.179Z,24.57
2023-04-09T11:38:16.193Z,24.47
2023-04-09T11:39:16.125Z,24.50
2023-04-09T11:40:16.123Z,24.54
2023-04-09T11:41:16.133Z,24.54
2023-04-09T11:42:16.129Z,24.50
2023-04-09T11:43:16.128Z,24.53
2023-04-09T11:44:16.106Z,24.50
2023-04-09T11:45:16.118Z,24.49
2023-04-09T11:46:16.103Z,24.53
2023-04-09T11:47:16.069Z,24.47
2023-04-09T11:48:16.045Z,24.47
2023-04-09T11:49:16.080Z,24.49
2023-04-09T11:50:16.086Z,24.49
2023-04-09T11:51:16.072Z,24.52
2023-04-09T11:52:16.034Z,24.42
2023-04-09T11:53:16.050Z,24.47
2023-04-09T11:54:16.046Z,24.51
2023-04-09T11:55:15.994Z,24.49
2023-04-09T11:56:15.992Z,24.43
2023-04-09T11:57:15.994Z,24.44
2023-04-09T11:58:15.987Z,24.48
2023-04-09T11:59:16.917Z,24.41
2023-04-09T12:00:15.966Z,24.45
2023-04-09T12:01:15.976Z,24.42
2023-04-09T12:02:16.003Z,24.45
2023-04-09T12:03:16.576Z,24.40
2023-04-09T12:04:16.232Z,24.35
2023-04-09T12:05:16.028Z,24.38
2023-04-09T12:06:15.914Z,24.34
2023-04-09T12:07:15.929Z,24.36
2023-04-09T12:08:15.941Z,24.33
2023-04-09T12:09:15.924Z,24.33
2023-04-09T12:10:15.928Z,24.32
2023-04-09T12:11:15.924Z,24.26
2023-04-09T12:12:15.903Z,24.27
2023-04-09T12:13:15.915Z,24.21
2023-04-09T12:14:15.917Z,24.25
2023-04-09T12:15:15.906Z,24.24
2023-04-09T12:16:15.898Z,24.17
2023-04-09T12:17:15.924Z,24.10
2023-04-09T12:18:15.916Z,24.20
2023-04-09T12:19:15.955Z,24.13
2023-04-09T12:20:15.968Z,24.06
2023-04-09T12:21:18.063Z,24.10
2023-04-09T12:22:16.049Z,23.98
2023-04-09T12:23:16.002Z,24.06
2023-04-09T12:24:15.991Z,23.96
2023-04-09T12:25:15.995Z,23.93
2023-04-09T12:26:15.987Z,23.96
2023-04-09T12:27:15.998Z,23.92
2023-04-09T12:28:16.007Z,23.93
2023-04-09T12:29:15.979Z,23.95
2023-04-09T12:30:15.961Z,23.92
2023-04-09T12:31:15.966Z,23.85
2023-04-09T12:32:15.969Z,23.93
2023-04-09T12:33:15.929Z,23.90
2023-04-09T12:34:15.913Z,23.93
2023-04-09T12:35:15.903Z,23.95
2023-04-09T12:36:15.915Z,23.92
2023-04-09T12:37:15.891Z,23.98
2023-04-09T12:38:15.894Z,23.94
2023-04-09T12:39:15.877Z,23.93
2023-04-09T12:40:15.899Z,23.95
2023-04-09T12:41:15.851Z,24.02
2023-04-09T12:42:15.896Z,24.01
2023-04-09T12:43:15.852Z,24.02
2023-04-09T12:44:15.846Z,24.01
2023-04-09T12:45:15.865Z,24.02
2023-04-09T12:46:15.903Z,24.01
2023-04-09T12:47:15.821Z,24.05
2023-04-09T12:48:15.805Z,24.04
2023-04-09T12:49:15.835Z,24.00
2023-04-09T12:50:15.813Z,24.00
2023-04-09T12:51:15.802Z,23.99
2023-04-09T12:52:15.784Z,23.99
2023-04-09T12:53:15.766Z,23.99
2023-04-09T12:54:15.739Z,24.00